This is the latest recevied weather packets stored in our database for station/object LRBS. If no packets are shown the sender has not sent any weather packets the latest 10 day(s).
| Time | Temp. | Humidity | Pressure | Rain* | Wind** | Luminosity | Snow |
|---|---|---|---|---|---|---|---|
| 1778137394 | 17.22° C | 56% | 1016 hPa | - | - | - | - |
| 1778136494 | 16.11° C | 59% | 1016 hPa | - | - | - | - |
| 1778135594 | 16.11° C | 59% | 1016 hPa | - | - | - | - |
| 1778134707 | 13.89° C | 72% | 1016 hPa | - | - | - | - |
| 1778133794 | 13.89° C | 72% | 1016 hPa | - | - | - | - |
| 1778132894 | 12.78° C | 72% | 1016 hPa | - | - | - | - |
| 1778132002 | 12.78° C | 72% | 1016 hPa | - | - | - | - |
| 1778131095 | 12.22° C | 77% | 1016 hPa | - | - | - | - |
| 1778130194 | 12.22° C | 77% | 1016 hPa | - | - | - | - |
| 1778129294 | 11.11° C | 82% | 1016 hPa | - | - | - | - |
| 1778128394 | 11.11° C | 82% | 1016 hPa | - | - | - | - |
| 1778127494 | 10° C | 88% | 1016 hPa | - | - | - | - |
| 1778126594 | 10° C | 88% | 1016 hPa | - | - | - | - |
| 1778125694 | 8.89° C | 87% | 1016 hPa | - | - | - | - |
| 1778124793 | 8.89° C | 87% | 1016 hPa | - | - | - | - |
| 1778123894 | 8.89° C | 87% | 1016 hPa | - | - | - | - |
| 1778122994 | 8.89° C | 87% | 1016 hPa | - | - | - | - |
| 1778122094 | 8.89° C | 87% | 1015 hPa | - | - | - | - |
| 1778121194 | 8.89° C | 87% | 1015 hPa | - | - | - | - |
| 1778120294 | 10° C | 82% | 1015 hPa | - | - | - | - |
| 1778119394 | 10° C | 82% | 1015 hPa | - | - | - | - |
| 1778118494 | 8.89° C | 82% | 1015 hPa | - | - | - | - |
| 1778117594 | 8.89° C | 82% | 1015 hPa | - | - | - | - |
| 1778116694 | 10° C | 82% | 1015 hPa | - | - | - | - |
| 1778115795 | 10° C | 82% | 1015 hPa | - | - | - | - |
* Rain since midnight (hover to see other rain measurements)
** Current wind speed in m/s (hover to see current wind gust speed)